Flugplatz Ochsenfurt

Für EDGJ sind keine METAR/TAF Berichte vorhanden.
Es werden die Flugwettermeldungen vom Flugplatz Illesheim Air Base in 31 km Entfernung angezeigt.

Bericht für ETIK

vom 20.10. um 02:56 UTC

kein Wind

Sichtweite 10 km oder mehr

keine Wolken

Temperatur 8.8°C

Taupunkt 6.4°C

Luftfeuchtigkeit 85%

Luftdruck 1018 hPa

ETIK 200256Z AUTO 00000KT 9999 CLR 09/06 A3006 RMK AO2 SLP181 T00880064 57019

Prognose für ETIK

vom 19.10. um 22:00 UTC

Am 19.10. zwischen 22:00 UTC und 06:00 UTC

Wind 9 kt aus 220°

Sichtweite 10 km oder mehr

aufgelockert bewölkt in 10000 ft


Zwischen 06:00 und 07:00 UTC übergehend zu

Wind 10 kt aus 200° in Böen 15 kt

Sichtweite 10 km oder mehr

aufgelockert bewölkt in 5000 ft

aufgebrochene Bewölkung in 7000 ft


Zwischen 14:00 und 15:00 UTC übergehend zu

Wind 15 kt aus 220° in Böen 20 kt

Sichtweite 10 km oder mehr

aufgebrochene Bewölkung in 3000 ft

TAF ETIK 192200Z 1922/2104 22009KT 9999 SCT100 QNH3007INS BECMG 2006/2007 20010G15KT 9999 SCT050 BKN070 QNH2988INS BECMG 2014/2015 22015G20KT 9999 BKN030 QNH2982INS TX15/2014Z TN04/2004Z LAST NO AMDS AFT 1922 NEXT 2006
Impressum